Time;durP1;ratioP1;P1;durP2;ratioP2;P2;SDS_P1;SDS_P2;PMS_P1;PMS_P2;Temp;Humidity;BMP_temperature;BMP_pressure;BME280_temperature;BME280_humidity;BME280_pressure;Samples;Min_cycle;Max_cycle;Signal;HPM_P1;HPM_P2
2023/03/25 00:00:13;;;;;;;;;;;9.20;99.90;;;;;;4989614;28;20046;-72
2023/03/25 00:02:39;;;;;;;20.42;3.60;;;9.20;99.90;;;;;;4993724;28;19922;-69
2023/03/25 00:05:05;;;;;;;;;;;9.20;99.90;;;;;;4988137;28;20109;-71
2023/03/25 00:07:31;;;;;;;17.23;3.40;;;9.20;99.90;;;;;;4975606;28;19973;-70
2023/03/25 00:09:56;;;;;;;;;;;9.30;99.90;;;;;;4993953;28;20054;-71
2023/03/25 00:12:22;;;;;;;20.40;3.58;;;9.20;99.90;;;;;;4975637;28;19925;-72
2023/03/25 00:14:54;;;;;;;;;;;9.20;99.90;;;;;;4976583;28;20453;-71
2023/03/25 00:17:22;;;;;;;20.65;3.47;;;9.20;99.90;;;;;;4993824;28;19921;-71
2023/03/25 00:19:49;;;;;;;17.55;3.70;;;9.30;99.90;;;;;;4992915;28;20125;-72
2023/03/25 00:22:16;;;;;;;19.75;4.15;;;9.30;99.90;;;;;;4993592;28;20491;-71
2023/03/25 00:24:42;;;;;;;16.77;2.53;;;10.10;99.90;;;;;;4993222;28;20121;-72
2023/03/25 00:27:07;;;;;;;;;;;9.20;99.90;;;;;;4991696;28;20185;-71
2023/03/25 00:29:33;;;;;;;22.58;3.65;;;9.00;99.90;;;;;;4991543;28;19976;-71
2023/03/25 00:32:01;;;;;;;18.70;3.55;;;9.00;99.90;;;;;;4991804;28;20445;-71
2023/03/25 00:34:27;;;;;;;;;;;9.80;99.90;;;;;;4973114;28;20057;-72
2023/03/25 00:36:53;;;;;;;20.88;3.40;;;9.10;99.90;;;;;;4991366;28;19922;-71
2023/03/25 00:39:18;;;;;;;;;;;8.00;99.90;;;;;;4991037;28;20050;-71
2023/03/25 00:41:44;;;;;;;17.77;3.22;;;8.90;99.90;;;;;;4991641;28;19921;-71
2023/03/25 00:44:11;;;;;;;;;;;8.80;99.90;;;;;;4993212;28;20047;-70
2023/03/25 00:46:37;;;;;;;16.85;2.95;;;8.90;99.90;;;;;;4992910;28;19993;-71
2023/03/25 00:49:03;;;;;;;;;;;8.80;99.90;;;;;;4993981;28;20042;-71
2023/03/25 00:51:30;;;;;;;17.92;3.53;;;8.80;99.90;;;;;;4993161;28;20377;-71
2023/03/25 00:54:00;;;;;;;19.73;3.42;;;8.80;99.90;;;;;;4992311;28;20042;-71
2023/03/25 00:56:30;;;;;;;14.90;3.22;;;8.80;99.90;;;;;;4993149;28;20046;-71
2023/03/25 00:58:56;;;;;;;17.90;3.15;;;8.90;99.90;;;;;;4992819;28;20439;-72
2023/03/25 01:01:27;;;;;;;17.33;3.30;;;9.50;99.90;;;;;;4974515;28;20391;-70
2023/03/25 01:03:57;;;;;;;16.90;3.00;;;9.90;99.90;;;;;;5011721;28;20045;-71
2023/03/25 01:06:27;;;;;;;16.77;3.20;;;8.80;99.90;;;;;;5012491;28;20037;-71
2023/03/25 01:08:56;;;;;;;23.23;3.55;;;8.80;99.90;;;;;;4998076;28;20049;-72
2023/03/25 01:11:26;;;;;;;19.10;2.85;;;8.70;99.90;;;;;;5016478;28;20042;-72
2023/03/25 01:13:52;;;;;;;23.27;3.55;;;8.80;99.90;;;;;;5016886;28;20048;-72
2023/03/25 01:16:18;;;;;;;26.85;3.88;;;8.80;99.90;;;;;;5015785;28;20437;-73
2023/03/25 01:18:44;;;;;;;;;;;8.30;99.90;;;;;;5016837;28;20088;-72
2023/03/25 01:21:13;;;;;;;18.20;3.80;;;8.80;99.90;;;;;;4998450;28;19926;-72
2023/03/25 01:23:39;;;;;;;19.42;3.05;;;9.00;99.90;;;;;;4996063;28;20121;-72
2023/03/25 01:26:05;;;;;;;;;;;9.50;99.90;;;;;;4995589;28;20476;-72
2023/03/25 01:28:30;;;;;;;19.17;3.35;;;9.00;99.90;;;;;;4995651;28;20000;-72
2023/03/25 01:31:00;;;;;;;;;;;9.00;99.90;;;;;;4997053;28;20081;-73
2023/03/25 01:33:26;;;;;;;18.88;2.97;;;9.00;99.90;;;;;;4996556;28;20030;-72
2023/03/25 01:35:57;;;;;;;;;;;9.00;99.90;;;;;;4978918;28;20503;-72
2023/03/25 01:38:23;;;;;;;18.50;3.20;;;9.20;99.90;;;;;;4996649;28;19994;-72
2023/03/25 01:40:52;;;;;;;;;;;9.10;99.90;;;;;;4996949;28;20138;-72
2023/03/25 01:43:24;;;;;;;24.40;3.70;;;9.00;99.90;;;;;;4995371;28;19948;-72
2023/03/25 01:45:50;;;;;;;26.08;3.75;;;9.00;99.90;;;;;;4996314;28;20046;-72
2023/03/25 01:48:31;;;;;;;17.13;3.25;;;10.00;99.90;;;;;;4996807;28;20047;-72
2023/03/25 01:51:10;;;;;;;20.15;3.40;;;9.50;99.90;;;;;;4978168;28;20050;-73
2023/03/25 01:53:39;;;;;;;21.52;3.35;;;9.20;99.90;;;;;;4996201;28;20050;-72
2023/03/25 01:56:09;;;;;;;17.83;3.40;;;9.00;99.90;;;;;;4996252;28;20047;-72
2023/03/25 01:58:35;;;;;;;26.27;4.32;;;9.00;99.90;;;;;;5011461;28;20056;-72
2023/03/25 02:01:02;;;;;;;24.15;3.58;;;8.90;99.90;;;;;;5015686;28;20505;-72
2023/03/25 02:03:30;;;;;;;25.38;3.72;;;8.90;99.90;;;;;;4997941;28;20468;-72
2023/03/25 02:06:11;;;;;;;15.88;3.85;;;9.00;99.90;;;;;;5015326;28;20064;-72
2023/03/25 02:08:40;;;;;;;17.63;3.28;;;9.00;99.90;;;;;;4997584;28;20104;-72
2023/03/25 02:11:07;;;;;;;19.10;3.88;;;9.00;99.90;;;;;;4997441;28;20385;-72
2023/03/25 02:13:35;;;;;;;18.80;3.40;;;9.50;99.90;;;;;;4998100;28;20058;-72
2023/03/25 02:16:13;;;;;;;19.58;4.13;;;8.90;99.90;;;;;;5015520;28;20381;-72
2023/03/25 02:19:20;;;;;;;28.08;4.70;;;9.00;99.90;;;;;;4996546;28;20489;-72
2023/03/25 02:22:16;;;;;;;26.73;5.10;;;8.90;99.90;;;;;;4975925;28;20130;-73
2023/03/25 02:25:10;;;;;;;21.58;3.83;;;9.20;99.90;;;;;;4955208;28;20062;-72
2023/03/25 02:27:44;;;;;;;23.67;4.07;;;8.90;99.90;;;;;;4966299;28;20054;-72
2023/03/25 02:30:36;;;;;;;18.92;4.22;;;9.30;99.90;;;;;;4995619;28;20398;-72
2023/03/25 02:33:15;;;;;;;20.77;3.55;;;9.40;99.90;;;;;;4994890;28;20075;-72
2023/03/25 02:36:02;;;;;;;22.48;4.68;;;8.90;99.90;;;;;;4995320;28;20047;-72
2023/03/25 02:38:43;;;;;;;20.50;3.92;;;8.90;99.90;;;;;;4995321;28;20446;-72
2023/03/25 02:41:27;;;;;;;26.58;4.70;;;8.90;99.90;;;;;;4995598;28;20053;-72
2023/03/25 02:44:05;;;;;;;30.98;5.22;;;9.30;99.90;;;;;;4995142;28;20046;-72
2023/03/25 02:46:33;;;;;;;25.08;3.85;;;8.80;99.90;;;;;;4994386;28;20069;-72
2023/03/25 02:49:12;;;;;;;22.13;4.43;;;8.80;99.90;;;;;;4995359;28;20085;-72
2023/03/25 02:51:52;;;;;;;20.70;4.20;;;8.80;99.90;;;;;;4994061;28;20405;-72
2023/03/25 02:54:20;;;;;;;23.40;3.67;;;8.80;99.90;;;;;;4994685;28;20050;-72
2023/03/25 02:56:49;;;;;;;15.90;2.78;;;8.90;99.90;;;;;;4994154;28;20049;-72
2023/03/25 02:59:18;;;;;;;33.00;4.55;;;8.90;99.90;;;;;;4995110;28;20100;-72
2023/03/25 03:01:44;;;;;;;28.70;4.53;;;8.90;99.90;;;;;;4994362;28;20446;-72
2023/03/25 03:04:12;;;;;;;23.00;3.83;;;10.00;99.90;;;;;;4994823;28;20035;-72
2023/03/25 03:06:40;;;;;;;;;;;8.80;99.90;;;;;;4995412;28;20105;-72
2023/03/25 03:09:29;;;;;;;22.30;4.68;;;8.90;99.90;;;;;;4993250;28;20420;-72
2023/03/25 03:12:18;;;;;;;27.02;3.35;;;8.80;99.90;;;;;;4995137;28;20054;-72
2023/03/25 03:15:26;;;;;;;21.60;3.58;;;8.80;99.90;;;;;;4992664;28;20049;-71
2023/03/25 03:17:52;;;;;;;22.83;3.97;;;8.90;99.90;;;;;;4973274;28;20402;-70
2023/03/25 03:20:24;;;;;;;;;;;8.80;99.90;;;;;;4991505;28;20062;-70
2023/03/25 03:23:04;;;;;;;24.70;3.53;;;8.80;99.90;;;;;;4994164;28;19926;-70
2023/03/25 03:25:44;;;;;;;26.77;3.55;;;8.90;99.90;;;;;;4995217;28;20088;-70
2023/03/25 03:28:21;;;;;;;18.15;3.67;;;8.90;99.90;;;;;;5013898;28;20077;-70
2023/03/25 03:30:50;;;;;;;18.17;3.35;;;9.60;99.90;;;;;;4995763;28;20091;-70
2023/03/25 03:33:43;;;;;;;22.00;4.43;;;9.00;99.90;;;;;;5014170;28;20050;-70
2023/03/25 03:36:33;;;;;;;16.17;3.53;;;8.90;99.90;;;;;;4992744;28;20153;-70
2023/03/25 03:39:09;;;;;;;16.05;3.40;;;8.90;99.90;;;;;;4994682;28;20092;-70
2023/03/25 03:41:40;;;;;;;23.08;3.72;;;9.60;99.90;;;;;;4994499;28;20057;-70
2023/03/25 03:44:11;;;;;;;23.15;3.90;;;9.90;99.90;;;;;;4993925;28;20053;-70
2023/03/25 03:46:53;;;;;;;20.15;3.75;;;9.20;99.90;;;;;;4993794;28;20050;-70
2023/03/25 03:49:25;;;;;;;16.33;3.47;;;9.00;99.90;;;;;;4993288;28;20457;-70
2023/03/25 03:52:12;;;;;;;18.77;3.28;;;9.10;99.90;;;;;;4994502;28;20371;-70
2023/03/25 03:54:49;;;;;;;22.65;4.72;;;8.10;99.90;;;;;;4993517;28;20050;-70
2023/03/25 03:57:31;;;;;;;20.80;4.20;;;9.00;99.90;;;;;;4993578;28;20043;-70
2023/03/25 04:00:05;;;;;;;22.70;3.88;;;8.90;99.90;;;;;;4992754;28;20050;-70
2023/03/25 04:02:42;;;;;;;22.05;3.53;;;8.90;99.90;;;;;;4993729;28;20105;-70
2023/03/25 04:05:12;;;;;;;19.90;3.72;;;8.90;99.90;;;;;;4993634;28;20058;-70
2023/03/25 04:07:43;;;;;;;22.05;3.78;;;9.40;99.90;;;;;;4976519;28;20145;-70
2023/03/25 04:10:40;;;;;;;20.58;3.25;;;8.90;99.90;;;;;;4993491;28;20114;-70
2023/03/25 04:13:13;;;;;;;23.92;3.95;;;9.00;99.90;;;;;;4976555;28;20145;-70
2023/03/25 04:15:39;;;;;;;13.77;3.42;;;8.90;99.90;;;;;;4993711;28;20053;-70
2023/03/25 04:18:05;;;;;;;26.17;3.80;;;8.90;99.90;;;;;;4993201;28;20063;-70
2023/03/25 04:20:33;;;;;;;;;;;7.60;99.90;;;;;;4994090;28;20221;-70
2023/03/25 04:23:00;;;;;;;18.60;3.25;;;8.90;99.90;;;;;;4993477;28;19922;-70
2023/03/25 04:25:26;;;;;;;20.52;3.15;;;9.90;99.90;;;;;;4992394;28;20482;-69
2023/03/25 04:27:57;;;;;;;18.75;3.63;;;8.90;99.90;;;;;;4992007;28;20054;-70
2023/03/25 04:30:24;;;;;;;23.95;4.03;;;10.00;99.90;;;;;;4993131;28;20154;-70
2023/03/25 04:32:51;;;;;;;14.88;2.97;;;9.70;99.90;;;;;;4992704;28;20092;-70
2023/03/25 04:35:18;;;;;;;16.92;3.20;;;9.40;99.90;;;;;;4993809;28;20045;-70
2023/03/25 04:37:53;;;;;;;17.02;3.97;;;8.60;99.90;;;;;;4993526;28;20046;-70
2023/03/25 04:40:19;;;;;;;16.27;3.20;;;9.60;99.90;;;;;;4974925;28;20077;-70
2023/03/25 04:42:46;;;;;;;19.45;3.55;;;9.30;99.90;;;;;;4993032;28;20147;-70
2023/03/25 04:45:15;;;;;;;16.25;3.97;;;9.90;99.90;;;;;;4993387;28;20124;-70
2023/03/25 04:47:43;;;;;;;;;;;8.70;99.90;;;;;;4976069;28;20482;-70
2023/03/25 04:50:19;;;;;;;17.75;3.38;;;9.30;99.90;;;;;;4993990;28;19925;-71
2023/03/25 04:52:45;;;;;;;22.15;3.45;;;9.00;99.90;;;;;;4976161;28;20058;-70
2023/03/25 04:55:16;;;;;;;16.98;3.42;;;9.90;99.90;;;;;;4993757;28;20046;-71
2023/03/25 04:57:44;;;;;;;19.67;3.50;;;9.10;99.90;;;;;;4993502;28;20046;-70
2023/03/25 05:00:11;;;;;;;19.00;3.28;;;8.70;99.90;;;;;;4992590;28;20529;-71
2023/03/25 05:02:44;;;;;;;19.25;2.90;;;8.70;99.90;;;;;;4992296;28;20434;-71
2023/03/25 05:05:17;;;;;;;17.25;3.72;;;8.60;99.90;;;;;;4993408;28;20042;-70
2023/03/25 05:07:53;;;;;;;20.60;3.42;;;8.70;99.90;;;;;;4994727;28;20077;-70
2023/03/25 05:10:24;;;;;;;20.10;3.97;;;8.60;99.90;;;;;;4996849;28;20070;-70
2023/03/25 05:12:56;;;;;;;17.35;4.10;;;8.60;99.90;;;;;;4979558;28;20100;-70
2023/03/25 05:15:22;;;;;;;17.45;3.78;;;8.80;99.90;;;;;;4996881;28;20046;-70
2023/03/25 05:17:48;;;;;;;14.73;2.60;;;9.20;99.90;;;;;;4997781;28;20046;-70
2023/03/25 05:20:16;;;;;;;;;;;8.60;99.90;;;;;;4977169;28;20069;-70
2023/03/25 05:22:44;;;;;;;14.20;3.13;;;8.70;99.90;;;;;;4992149;28;20512;-70
2023/03/25 05:25:10;;;;;;;13.05;2.55;;;8.70;99.90;;;;;;4975502;28;20125;-70
2023/03/25 05:27:37;;;;;;;21.15;3.65;;;8.60;99.90;;;;;;5007856;28;20057;-70
2023/03/25 05:30:06;;;;;;;18.00;3.03;;;8.70;99.90;;;;;;5012512;28;20489;-70
2023/03/25 05:32:32;;;;;;;23.20;3.55;;;8.70;99.90;;;;;;5012188;28;20048;-70
2023/03/25 05:35:01;;;;;;;;;;;8.70;99.90;;;;;;5011924;28;20394;-69
2023/03/25 05:37:27;;;;;;;22.65;3.88;;;8.70;99.90;;;;;;5011836;28;19922;-70
2023/03/25 05:39:53;;;;;;;19.60;2.85;;;8.90;99.90;;;;;;5012579;28;20049;-70
2023/03/25 05:42:21;;;;;;;;;;;9.80;99.90;;;;;;4994459;28;20050;-70
2023/03/25 05:44:52;;;;;;;18.70;3.10;;;9.80;99.90;;;;;;4994904;28;20015;-70
2023/03/25 05:47:23;;;;;;;20.40;3.88;;;9.30;99.90;;;;;;5010661;28;20052;-70
2023/03/25 05:49:51;;;;;;;18.40;2.97;;;8.90;99.90;;;;;;5011410;28;20111;-70
2023/03/25 05:52:18;;;;;;;18.48;3.15;;;9.30;99.90;;;;;;5012532;28;20444;-70
2023/03/25 05:54:45;;;;;;;20.20;3.50;;;9.60;99.90;;;;;;4997722;28;20046;-70
2023/03/25 05:57:11;;;;;;;15.40;2.83;;;9.30;99.90;;;;;;5015024;28;20129;-70
2023/03/25 05:59:38;;;;;;;18.85;3.03;;;9.00;99.90;;;;;;5015356;28;20591;-71
2023/03/25 06:02:06;;;;;;;17.15;3.13;;;8.30;99.90;;;;;;5015229;28;20050;-70
2023/03/25 06:04:40;;;;;;;19.48;2.88;;;8.80;99.90;;;;;;5014144;28;20042;-70
2023/03/25 06:07:13;;;;;;;18.17;3.35;;;8.80;99.90;;;;;;5015906;28;20053;-70
2023/03/25 06:09:44;;;;;;;17.00;2.97;;;8.80;99.90;;;;;;5015321;28;20045;-70
2023/03/25 06:12:12;;;;;;;14.48;2.55;;;10.30;99.90;;;;;;5015630;28;20520;-70
2023/03/25 06:14:41;;;;;;;14.57;2.78;;;8.80;99.90;;;;;;5014982;28;20576;-71
2023/03/25 06:17:09;;;;;;;14.57;3.78;;;10.00;99.90;;;;;;5015105;28;20049;-72
2023/03/25 06:19:41;;;;;;;17.90;2.97;;;8.80;99.90;;;;;;5015083;28;20587;-72
2023/03/25 06:22:10;;;;;;;13.82;3.17;;;10.00;99.90;;;;;;5015554;28;20124;-71
2023/03/25 06:24:37;;;;;;;17.63;2.97;;;8.90;99.90;;;;;;5013855;28;20042;-71
2023/03/25 06:27:08;;;;;;;15.85;3.33;;;8.90;99.90;;;;;;5014913;28;20058;-71
2023/03/25 06:29:37;;;;;;;16.98;3.22;;;10.10;99.90;;;;;;5011799;28;20091;-71
2023/03/25 06:32:11;;;;;;;15.20;2.92;;;8.90;99.90;;;;;;4994641;28;20061;-71
2023/03/25 06:34:38;;;;;;;16.85;3.33;;;8.90;99.90;;;;;;4985644;28;20046;-71
2023/03/25 06:37:10;;;;;;;15.35;3.35;;;8.90;99.90;;;;;;4995673;28;20065;-71
2023/03/25 06:39:36;;;;;;;15.02;2.90;;;8.70;99.90;;;;;;4993771;28;20046;-72
2023/03/25 06:42:03;;;;;;;;;;;9.10;99.90;;;;;;4995604;28;20104;-73
2023/03/25 06:44:29;;;;;;;;;;;8.80;99.90;;;;;;4992546;28;20302;-73
2023/03/25 06:46:55;;;;;;;17.25;3.65;;;8.80;99.90;;;;;;4994473;28;19944;-73
2023/03/25 06:49:21;;;;;;;16.77;3.83;;;8.70;99.90;;;;;;4994465;28;20474;-75
2023/03/25 06:51:50;;;;;;;15.90;3.25;;;8.80;99.90;;;;;;4977601;28;20402;-72
2023/03/25 06:54:17;;;;;;;13.25;3.05;;;9.30;99.90;;;;;;4996081;28;20042;-73
2023/03/25 06:56:43;;;;;;;16.00;3.28;;;8.80;99.90;;;;;;4974982;28;20042;-72
2023/03/25 06:59:08;;;;;;;;;;;8.70;99.90;;;;;;4976900;28;20050;-71
2023/03/25 07:01:35;;;;;;;16.80;2.90;;;8.80;99.90;;;;;;4990806;28;20020;-73
2023/03/25 07:04:00;;;;;;;14.63;2.88;;;8.80;99.90;;;;;;4994484;28;20075;-76
2023/03/25 07:06:26;;;;;;;;;;;8.80;99.90;;;;;;4993897;28;20049;-72
2023/03/25 07:08:52;;;;;;;20.35;3.45;;;8.90;99.90;;;;;;4994273;28;20408;-74
2023/03/25 07:11:27;;;;;;;15.05;3.50;;;8.90;99.90;;;;;;4976534;28;20038;-72
2023/03/25 07:13:53;;;;;;;13.40;2.58;;;9.00;99.90;;;;;;4993688;28;20118;-72
2023/03/25 07:16:22;;;;;;;16.00;3.80;;;9.00;99.90;;;;;;4994080;28;20065;-73
2023/03/25 07:18:50;;;;;;;18.75;3.35;;;9.00;99.90;;;;;;4997237;28;20038;-71
2023/03/25 07:21:16;;;;;;;18.83;3.53;;;9.00;99.90;;;;;;5001869;28;20132;-71
2023/03/25 07:23:42;;;;;;;11.32;2.92;;;8.90;99.90;;;;;;4982695;28;20129;-71
2023/03/25 07:26:08;;;;;;;;;;;8.70;99.90;;;;;;4994460;28;20146;-72
2023/03/25 07:28:36;;;;;;;14.73;3.15;;;8.70;99.90;;;;;;4989428;28;20396;-72
2023/03/25 07:31:08;;;;;;;13.90;2.95;;;8.70;99.90;;;;;;4988468;28;20494;-71
2023/03/25 07:33:34;;;;;;;16.05;3.10;;;8.70;99.90;;;;;;4984536;28;20498;-72
2023/03/25 07:36:00;;;;;;;;;;;8.60;99.90;;;;;;4990074;28;20130;-71
2023/03/25 07:38:26;;;;;;;15.25;3.35;;;8.40;99.90;;;;;;4990160;28;19961;-72
2023/03/25 07:40:52;;;;;;;21.63;3.40;;;8.40;99.90;;;;;;4975912;28;20050;-75
2023/03/25 07:43:17;;;;;;;;;;;8.40;99.90;;;;;;4990292;28;20502;-71
2023/03/25 07:45:43;;;;;;;15.15;4.55;;;8.40;99.90;;;;;;4994320;28;19922;-71
2023/03/25 07:48:13;;;;;;;;;;;8.40;99.90;;;;;;4994497;28;20050;-71
2023/03/25 07:50:39;;;;;;;17.45;3.42;;;8.40;99.90;;;;;;4992285;28;19967;-71
2023/03/25 07:53:08;;;;;;;21.45;3.00;;;8.40;99.90;;;;;;4993963;28;20062;-71
2023/03/25 07:55:34;;;;;;;15.88;2.63;;;8.50;99.90;;;;;;4991944;28;20043;-71
2023/03/25 07:58:01;;;;;;;;;;;8.70;99.90;;;;;;4994580;28;20045;-71
2023/03/25 08:00:28;;;;;;;;;;;8.80;99.90;;;;;;4992919;28;19922;-71
2023/03/25 08:02:53;;;;;;;20.70;3.35;;;8.90;99.90;;;;;;4985077;28;19970;-71
2023/03/25 08:05:22;;;;;;;22.30;3.33;;;9.00;99.90;;;;;;4977415;28;20133;-71
2023/03/25 08:07:50;;;;;;;22.25;3.42;;;9.20;99.90;;;;;;4971618;28;20133;-72
2023/03/25 08:10:17;;;;;;;13.93;3.17;;;9.20;99.90;;;;;;4991643;28;20057;-70
2023/03/25 08:12:43;;;;;;;19.25;2.75;;;9.40;99.90;;;;;;4992579;28;20085;-71
2023/03/25 08:15:12;;;;;;;19.63;3.30;;;9.50;99.90;;;;;;4974896;28;20105;-71
2023/03/25 08:17:39;;;;;;;18.20;2.70;;;9.90;99.90;;;;;;4994842;28;20208;-72
2023/03/25 08:20:08;;;;;;;14.90;2.78;;;10.40;99.90;;;;;;4988155;28;20050;-74
2023/03/25 08:22:36;;;;;;;12.98;2.95;;;11.00;99.90;;;;;;4993051;28;20047;-76
2023/03/25 08:25:03;;;;;;;17.15;2.97;;;11.00;99.90;;;;;;4972122;28;20058;-72
2023/03/25 08:27:28;;;;;;;;;;;10.70;99.90;;;;;;4991229;28;20050;-73
2023/03/25 08:29:58;;;;;;;16.87;3.20;;;10.60;99.90;;;;;;4993550;28;20282;-71
2023/03/25 08:32:26;;;;;;;21.02;3.83;;;10.40;99.90;;;;;;5012316;28;20092;-72
2023/03/25 08:34:53;;;;;;;15.60;2.85;;;10.20;99.90;;;;;;5013218;28;20037;-72
2023/03/25 08:37:20;;;;;;;15.30;2.85;;;10.00;99.90;;;;;;5012746;28;20052;-73
2023/03/25 08:39:48;;;;;;;15.23;2.88;;;10.00;99.90;;;;;;5012697;28;20045;-73
2023/03/25 08:42:15;;;;;;;13.32;2.55;;;10.00;99.90;;;;;;5013051;28;20046;-74
2023/03/25 08:44:43;;;;;;;21.98;3.03;;;10.00;99.90;;;;;;5011521;28;20030;-74
2023/03/25 08:47:10;;;;;;;15.07;2.78;;;10.00;99.90;;;;;;5013219;28;20038;-74
2023/03/25 08:49:35;;;;;;;16.50;3.17;;;10.10;99.90;;;;;;5009312;28;20045;-72
2023/03/25 08:52:03;;;;;;;;;;;10.00;99.90;;;;;;4975507;28;20046;-72
2023/03/25 08:54:29;;;;;;;;;;;10.00;99.90;;;;;;4993133;28;20282;-72
2023/03/25 08:56:55;;;;;;;11.90;2.20;;;10.00;99.90;;;;;;4993189;28;20340;-71
2023/03/25 08:59:21;;;;;;;;;;;9.90;99.90;;;;;;4992922;28;20050;-72
2023/03/25 09:01:47;;;;;;;16.98;2.97;;;9.80;99.90;;;;;;4993548;28;19922;-71
2023/03/25 09:04:13;;;;;;;14.50;3.03;;;9.80;99.90;;;;;;4994994;28;20398;-73
2023/03/25 09:06:39;;;;;;;15.88;3.35;;;9.90;99.90;;;;;;5003641;28;20401;-74
2023/03/25 09:09:06;;;;;;;13.30;3.20;;;10.00;99.90;;;;;;5015917;28;20049;-72
2023/03/25 09:11:32;;;;;;;12.35;2.55;;;10.00;99.90;;;;;;5015510;28;20121;-75
2023/03/25 09:14:04;;;;;;;16.10;3.30;;;10.10;99.90;;;;;;5012515;28;20057;-71
2023/03/25 09:16:33;;;;;;;17.13;3.53;;;10.10;99.90;;;;;;5012173;28;20034;-74
2023/03/25 09:18:59;;;;;;;17.45;3.17;;;10.10;99.90;;;;;;4990311;28;20039;-77
2023/03/25 09:21:25;;;;;;;18.70;3.58;;;10.00;99.90;;;;;;4997817;28;20054;-75
2023/03/25 09:23:51;;;;;;;;;;;10.00;99.90;;;;;;4986864;28;20427;-77
2023/03/25 09:26:18;;;;;;;13.43;3.00;;;10.10;99.90;;;;;;4972338;28;19928;-78
2023/03/25 09:28:44;;;;;;;14.98;3.35;;;10.10;99.90;;;;;;4974815;28;20502;-75
2023/03/25 09:31:10;;;;;;;15.68;3.58;;;10.10;99.90;;;;;;4997146;28;20466;-77
2023/03/25 09:33:36;;;;;;;;;;;10.10;99.90;;;;;;4995335;28;20092;-74
2023/03/25 09:36:03;;;;;;;20.75;3.67;;;10.10;99.90;;;;;;4976877;28;19922;-76
2023/03/25 09:38:29;;;;;;;20.48;2.97;;;10.10;99.90;;;;;;4976978;28;20055;-75
2023/03/25 09:40:57;;;;;;;18.60;2.88;;;10.20;99.90;;;;;;4959028;28;20050;-78
2023/03/25 09:43:31;;;;;;;;;;;10.30;99.90;;;;;;4959939;28;20046;-76
2023/03/25 09:45:58;;;;;;;21.10;3.78;;;9.40;99.90;;;;;;4978684;28;19918;-74
2023/03/25 09:48:33;;;;;;;18.60;3.65;;;10.40;99.90;;;;;;4977948;28;20130;-73
2023/03/25 09:51:24;;;;;;;12.68;3.40;;;10.30;99.90;;;;;;4991571;28;20054;-75
2023/03/25 09:54:14;;;;;;;20.88;3.97;;;10.40;99.90;;;;;;4987123;28;20498;-74
2023/03/25 09:56:42;;;;;;;23.60;5.10;;;10.50;99.90;;;;;;4977078;28;20062;-75
2023/03/25 09:59:22;;;;;;;16.15;3.55;;;10.90;99.90;;;;;;4995780;28;20042;-74
2023/03/25 10:02:05;;;;;;;16.90;4.00;;;11.20;99.90;;;;;;4994951;28;20082;-74
2023/03/25 10:05:08;;;;;;;18.42;4.50;;;11.30;99.90;;;;;;4994312;28;20089;-74
2023/03/25 10:08:08;;;;;;;17.98;3.75;;;11.60;99.90;;;;;;4976519;28;20046;-74
2023/03/25 10:10:36;;;;;;;21.02;4.90;;;12.00;99.90;;;;;;4975985;28;20051;-75
2023/03/25 10:13:24;;;;;;;16.52;3.60;;;12.60;99.90;;;;;;4974750;28;20050;-74
2023/03/25 10:16:13;;;;;;;17.17;4.65;;;13.40;99.90;;;;;;4994724;28;20061;-74
2023/03/25 10:18:57;;;;;;;15.73;4.60;;;13.60;99.90;;;;;;4995150;28;20083;-74
2023/03/25 10:21:27;;;;;;;17.70;3.67;;;13.50;99.90;;;;;;4995063;28;20078;-75
2023/03/25 10:24:06;;;;;;;21.13;5.05;;;13.50;99.90;;;;;;4977182;28;20050;-76
2023/03/25 10:26:55;;;;;;;17.58;4.00;;;13.20;99.90;;;;;;4986532;28;20061;-73
2023/03/25 10:29:27;;;;;;;18.35;4.75;;;13.40;99.90;;;;;;4977010;28;20089;-74
2023/03/25 10:32:05;;;;;;;20.20;3.75;;;14.10;99.90;;;;;;4990000;28;20045;-72
2023/03/25 10:34:39;;;;;;;17.25;3.50;;;14.20;99.90;;;;;;4984916;28;20039;-75
2023/03/25 10:37:11;;;;;;;17.27;3.65;;;14.90;99.90;;;;;;4992607;28;20046;-77
2023/03/25 10:39:44;;;;;;;13.95;3.33;;;15.40;99.90;;;;;;4992817;28;20050;-74
2023/03/25 10:42:34;;;;;;;17.55;3.63;;;14.40;99.90;;;;;;4994532;28;20125;-76
2023/03/25 10:45:00;;;;;;;15.57;4.10;;;14.20;99.90;;;;;;4992052;28;20403;-74
2023/03/25 10:47:32;;;;;;;17.90;3.63;;;13.70;99.90;;;;;;4975185;28;20057;-77
2023/03/25 10:50:17;;;;;;;16.30;3.75;;;13.30;99.90;;;;;;4981753;28;20130;-77
2023/03/25 10:52:46;;;;;;;16.92;3.45;;;13.80;99.90;;;;;;4993248;28;20524;-74
2023/03/25 10:55:26;;;;;;;24.65;4.97;;;13.80;99.90;;;;;;4992031;28;20034;-76
2023/03/25 10:57:52;;;;;;;20.90;4.65;;;13.60;99.90;;;;;;4943180;28;20494;-72
2023/03/25 11:00:19;;;;;;;18.05;4.32;;;13.20;99.90;;;;;;4992338;28;20042;-72
2023/03/25 11:02:49;;;;;;;15.90;3.60;;;13.10;99.90;;;;;;4975207;28;20058;-73
2023/03/25 11:05:21;;;;;;;18.33;3.92;;;13.10;99.90;;;;;;4992579;28;20053;-72
2023/03/25 11:08:04;;;;;;;19.88;4.00;;;13.10;99.90;;;;;;4975550;28;20066;-75
2023/03/25 11:10:33;;;;;;;18.50;3.75;;;13.30;99.90;;;;;;4975378;28;20038;-76
2023/03/25 11:13:02;;;;;;;15.98;3.30;;;13.30;99.90;;;;;;4975760;28;20046;-75
2023/03/25 11:15:32;;;;;;;17.35;3.20;;;13.40;99.90;;;;;;4993072;28;20458;-75
2023/03/25 11:18:35;;;;;;;15.73;3.95;;;13.40;99.90;;;;;;4976689;28;20060;-75
2023/03/25 11:21:08;;;;;;;17.73;3.97;;;13.40;99.90;;;;;;4982642;28;20054;-76
2023/03/25 11:23:42;;;;;;;18.85;3.67;;;14.00;99.90;;;;;;4974182;28;20050;-73
2023/03/25 11:26:40;;;;;;;20.52;3.90;;;14.20;99.90;;;;;;4982870;28;20177;-73
2023/03/25 11:29:10;;;;;;;17.33;3.60;;;13.80;99.90;;;;;;4953203;29;20155;-74
2023/03/25 11:31:37;;;;;;;15.93;3.60;;;13.80;99.90;;;;;;4986474;28;20487;-74
2023/03/25 11:34:11;;;;;;;12.50;3.20;;;13.40;99.90;;;;;;4974311;28;20125;-76
2023/03/25 11:36:58;;;;;;;19.38;3.05;;;13.10;99.90;;;;;;4985055;28;20043;-74
2023/03/25 11:39:33;;;;;;;14.88;3.78;;;13.00;99.90;;;;;;4992351;28;20379;-75
2023/03/25 11:42:09;;;;;;;15.88;2.90;;;13.10;99.90;;;;;;4971654;28;20050;-76
2023/03/25 11:44:41;;;;;;;15.02;2.63;;;12.70;99.90;;;;;;4990582;28;20528;-79
2023/03/25 11:47:09;;;;;;;22.17;3.88;;;12.30;99.90;;;;;;4991768;28;20100;-77
2023/03/25 11:49:48;;;;;;;14.00;2.97;;;12.10;99.90;;;;;;4969857;28;20049;-80
2023/03/25 11:52:19;;;;;;;12.85;2.50;;;11.90;99.90;;;;;;4985946;28;20105;-75
2023/03/25 11:54:45;;;;;;;19.10;2.95;;;11.40;99.90;;;;;;4991497;28;20042;-75
2023/03/25 11:57:23;;;;;;;15.60;3.20;;;11.70;99.90;;;;;;5001449;28;20043;-73
2023/03/25 11:59:57;;;;;;;16.17;3.30;;;11.70;99.90;;;;;;4993981;28;20593;-80
2023/03/25 12:02:30;;;;;;;12.15;2.92;;;11.90;99.90;;;;;;4995101;28;20390;-78
2023/03/25 12:05:07;;;;;;;18.15;2.70;;;11.90;99.90;;;;;;4997576;28;20039;-77
2023/03/25 12:08:04;;;;;;;16.58;2.92;;;11.80;99.90;;;;;;4997212;28;20054;-74
2023/03/25 12:10:57;;;;;;;15.93;2.97;;;11.80;99.90;;;;;;4939734;28;20047;-75
2023/03/25 12:13:38;;;;;;;12.65;2.70;;;11.80;99.90;;;;;;4975093;28;20051;-76
2023/03/25 12:16:06;;;;;;;15.82;3.08;;;11.90;99.90;;;;;;4980728;28;20046;-77
2023/03/25 12:18:42;;;;;;;17.50;3.13;;;12.50;99.90;;;;;;4977891;28;20045;-78
2023/03/25 12:21:21;;;;;;;15.83;3.13;;;12.60;99.90;;;;;;4990900;28;20133;-75
2023/03/25 12:24:08;;;;;;;16.00;3.05;;;12.20;99.90;;;;;;4975432;28;20074;-74
2023/03/25 12:26:52;;;;;;;13.98;3.15;;;11.90;99.90;;;;;;4970082;28;20101;-75
2023/03/25 12:29:24;;;;;;;21.02;3.85;;;11.60;99.90;;;;;;4992467;28;20057;-78
2023/03/25 12:32:02;;;;;;;16.30;4.75;;;11.20;99.90;;;;;;4974739;28;20045;-73
2023/03/25 12:34:28;;;;;;;18.67;3.92;;;11.00;99.90;;;;;;4958903;28;20197;-77
2023/03/25 12:37:04;;;;;;;11.50;2.05;;;10.60;99.90;;;;;;4989717;28;20194;-75
2023/03/25 12:39:30;;;;;;;;;;;10.30;99.90;;;;;;4985339;28;20045;-76
2023/03/25 12:42:04;;;;;;;10.48;2.45;;;9.90;99.90;;;;;;4990718;28;19968;-79
2023/03/25 12:44:52;;;;;;;6.28;1.50;;;9.70;99.90;;;;;;4967952;28;20405;-78
2023/03/25 12:47:41;;;;;;;8.75;1.77;;;9.40;99.90;;;;;;4973626;28;20050;-77
2023/03/25 12:50:31;;;;;;;12.45;2.58;;;9.40;99.90;;;;;;4987930;28;20046;-74
2023/03/25 12:53:22;;;;;;;14.57;3.30;;;9.30;99.90;;;;;;4974925;28;20185;-70
2023/03/25 12:56:05;;;;;;;19.98;3.50;;;9.50;99.90;;;;;;4989396;28;20070;-70
2023/03/25 12:58:50;;;;;;;22.27;3.13;;;9.60;99.90;;;;;;4971484;28;20038;-74
2023/03/25 13:01:24;;;;;;;23.20;7.55;;;9.60;99.90;;;;;;4978799;28;20073;-71
2023/03/25 13:03:55;;;;;;;16.05;4.38;;;9.70;99.90;;;;;;4977575;28;20486;-74
2023/03/25 13:06:51;;;;;;;22.42;5.18;;;9.70;99.90;;;;;;4979044;28;20073;-70
2023/03/25 13:09:29;;;;;;;18.25;6.45;;;9.50;99.90;;;;;;4990693;28;20089;-72
2023/03/25 13:12:30;;;;;;;13.50;3.40;;;9.70;99.90;;;;;;4978136;28;20249;-69
2023/03/25 13:15:18;;;;;;;13.77;2.80;;;10.30;99.90;;;;;;4986458;28;20121;-73
2023/03/25 13:17:54;;;;;;;11.88;3.47;;;11.00;99.90;;;;;;4993491;28;20182;-72
2023/03/25 13:20:24;;;;;;;12.75;3.03;;;11.10;99.90;;;;;;4978204;28;20038;-71